createdAt,value
2023-03-31T00:00:18.773Z,9.93
2023-03-31T00:02:46.222Z,9.33
2023-03-31T00:05:18.031Z,9.60
2023-03-31T00:07:46.162Z,9.10
2023-03-31T00:10:18.428Z,9.73
2023-03-31T00:12:46.079Z,7.97
2023-03-31T00:15:13.023Z,8.57
2023-03-31T00:17:40.041Z,7.63
2023-03-31T00:20:12.346Z,8.40
2023-03-31T00:22:42.326Z,7.93
2023-03-31T00:25:13.896Z,8.20
2023-03-31T00:27:44.434Z,8.30
2023-03-31T00:30:16.150Z,8.07
2023-03-31T00:32:42.900Z,8.00
2023-03-31T00:35:10.150Z,7.17
2023-03-31T00:37:37.079Z,7.57
2023-03-31T00:40:09.310Z,7.13
2023-03-31T00:42:44.039Z,6.93
2023-03-31T00:45:14.028Z,7.43
2023-03-31T00:47:47.681Z,6.77
2023-03-31T00:50:23.452Z,7.20
2023-03-31T00:52:55.973Z,5.97
2023-03-31T00:55:30.900Z,6.10
2023-03-31T00:57:58.034Z,5.70
2023-03-31T01:00:24.712Z,6.70
2023-03-31T01:02:56.217Z,6.23
2023-03-31T01:05:27.776Z,6.03
2023-03-31T01:07:56.161Z,6.30
2023-03-31T01:10:23.226Z,6.73
2023-03-31T01:12:54.236Z,6.90
2023-03-31T01:15:22.101Z,7.33
2023-03-31T01:17:51.218Z,7.87
2023-03-31T01:20:24.558Z,7.37
2023-03-31T01:23:00.495Z,7.20
2023-03-31T01:26:24.520Z,7.17
2023-03-31T01:29:12.378Z,7.37
2023-03-31T01:31:57.252Z,9.03
2023-03-31T01:34:48.200Z,8.13
2023-03-31T01:37:26.986Z,8.00
2023-03-31T01:40:09.678Z,8.50
2023-03-31T01:42:44.729Z,8.33
2023-03-31T01:45:26.481Z,8.03
2023-03-31T01:48:03.017Z,7.80
2023-03-31T01:50:35.361Z,7.77
2023-03-31T01:53:11.075Z,7.93
2023-03-31T01:55:42.818Z,8.60
2023-03-31T01:58:16.892Z,9.00
2023-03-31T02:00:56.977Z,9.43
2023-03-31T02:03:31.041Z,9.07
2023-03-31T02:06:19.326Z,7.23
2023-03-31T02:08:55.032Z,8.27
2023-03-31T02:11:22.922Z,8.97
2023-03-31T02:13:53.102Z,9.20
2023-03-31T02:16:26.313Z,9.43
2023-03-31T02:19:02.420Z,8.23
2023-03-31T02:21:33.373Z,9.03
2023-03-31T02:24:08.969Z,8.00
2023-03-31T02:26:57.492Z,7.07
2023-03-31T02:29:24.243Z,8.30
2023-03-31T02:32:06.017Z,7.73
2023-03-31T02:34:32.686Z,8.33
2023-03-31T02:36:59.735Z,8.17
2023-03-31T02:39:32.627Z,8.83
2023-03-31T02:42:02.338Z,8.43
2023-03-31T02:44:29.114Z,8.30
2023-03-31T02:46:55.862Z,8.20
2023-03-31T02:49:22.642Z,7.43
2023-03-31T02:52:17.183Z,7.80
2023-03-31T02:55:17.468Z,8.60
2023-03-31T02:57:59.116Z,7.73
2023-03-31T03:00:49.877Z,7.33
2023-03-31T03:03:27.422Z,6.93
2023-03-31T03:06:05.855Z,8.50
2023-03-31T03:08:55.659Z,7.30
2023-03-31T03:11:40.646Z,7.50
2023-03-31T03:14:40.798Z,8.27
2023-03-31T03:17:35.188Z,7.23
2023-03-31T03:20:07.941Z,7.53
2023-03-31T03:22:35.781Z,6.67
2023-03-31T03:25:02.413Z,7.00
2023-03-31T03:27:29.180Z,6.10
2023-03-31T03:29:56.308Z,6.97
2023-03-31T03:32:23.107Z,6.37
2023-03-31T03:34:49.816Z,7.30
2023-03-31T03:37:16.460Z,6.80
2023-03-31T03:39:43.136Z,6.73
2023-03-31T03:42:09.806Z,6.67
2023-03-31T03:44:36.414Z,7.13
2023-03-31T03:47:03.319Z,7.80
2023-03-31T03:49:30.109Z,7.30
2023-03-31T03:51:56.799Z,7.50
2023-03-31T03:54:23.560Z,7.03
2023-03-31T03:56:50.320Z,7.67
2023-03-31T03:59:17.138Z,7.43
2023-03-31T04:01:43.854Z,7.03
2023-03-31T04:04:10.660Z,7.80
2023-03-31T04:06:37.523Z,7.13
2023-03-31T04:09:05.407Z,7.73
2023-03-31T04:11:32.849Z,6.80
2023-03-31T04:13:59.612Z,7.10
2023-03-31T04:16:26.352Z,7.70
2023-03-31T04:18:56.760Z,6.70
2023-03-31T04:21:23.990Z,6.73
2023-03-31T04:23:58.925Z,6.43
2023-03-31T04:26:30.920Z,7.00
2023-03-31T04:29:01.394Z,7.43
2023-03-31T04:31:30.796Z,7.60
2023-03-31T04:34:02.615Z,6.80
2023-03-31T04:36:31.440Z,6.70
2023-03-31T04:38:58.159Z,6.40
2023-03-31T04:41:27.998Z,6.70
2023-03-31T04:43:54.784Z,7.00
2023-03-31T04:46:22.085Z,7.20
2023-03-31T04:48:48.857Z,6.73
2023-03-31T04:51:16.395Z,6.97
2023-03-31T04:53:43.176Z,7.60
2023-03-31T04:56:10.015Z,6.70
2023-03-31T04:58:36.878Z,5.80
2023-03-31T05:01:06.416Z,6.50
2023-03-31T05:03:33.647Z,6.63
2023-03-31T05:06:01.241Z,7.63
2023-03-31T05:08:27.911Z,6.20
2023-03-31T05:10:54.544Z,6.40
2023-03-31T05:13:21.289Z,5.90
2023-03-31T05:15:50.752Z,5.97
2023-03-31T05:18:18.480Z,6.83
2023-03-31T05:20:45.336Z,5.57
2023-03-31T05:23:12.028Z,6.20
2023-03-31T05:25:38.696Z,5.40
2023-03-31T05:28:06.072Z,6.30
2023-03-31T05:30:32.832Z,5.83
2023-03-31T05:32:59.688Z,6.23
2023-03-31T05:35:26.613Z,6.50
2023-03-31T05:37:53.316Z,7.43
2023-03-31T05:40:20.078Z,6.73
2023-03-31T05:42:46.750Z,7.07
2023-03-31T05:45:13.828Z,6.17
2023-03-31T05:47:40.695Z,6.67
2023-03-31T05:50:09.093Z,5.97
2023-03-31T05:52:36.357Z,6.30
2023-03-31T05:55:04.371Z,6.00
2023-03-31T05:57:31.440Z,6.50
2023-03-31T05:59:58.366Z,5.93
2023-03-31T06:02:25.108Z,5.77
2023-03-31T06:04:52.157Z,5.70
2023-03-31T06:07:19.250Z,6.13
2023-03-31T06:09:46.509Z,6.37
2023-03-31T06:12:13.149Z,6.00
2023-03-31T06:14:39.836Z,5.47
2023-03-31T06:17:07.330Z,6.33
2023-03-31T06:19:34.547Z,6.17
2023-03-31T06:22:01.666Z,6.20
2023-03-31T06:24:28.450Z,5.93
2023-03-31T06:26:55.257Z,6.00
2023-03-31T06:29:22.081Z,5.13
2023-03-31T06:31:48.745Z,6.10
2023-03-31T06:34:15.682Z,5.50
2023-03-31T06:36:42.272Z,6.00
2023-03-31T06:39:08.941Z,5.97
2023-03-31T06:41:35.663Z,5.70
2023-03-31T06:44:02.354Z,6.27
2023-03-31T06:46:29.040Z,5.47
2023-03-31T06:48:55.777Z,6.23
2023-03-31T06:51:22.526Z,4.83
2023-03-31T06:53:49.312Z,5.80
2023-03-31T06:56:16.312Z,5.83
2023-03-31T06:58:43.015Z,6.23
2023-03-31T07:01:11.472Z,5.90
2023-03-31T07:03:38.455Z,6.13
2023-03-31T07:06:05.534Z,5.20
2023-03-31T07:08:32.759Z,6.13
2023-03-31T07:11:01.253Z,5.33
2023-03-31T07:13:28.932Z,5.90
2023-03-31T07:15:56.261Z,4.87
2023-03-31T07:18:34.234Z,5.97
2023-03-31T07:21:02.037Z,5.57
2023-03-31T07:23:28.886Z,5.87
2023-03-31T07:25:55.575Z,5.73
2023-03-31T07:28:22.257Z,6.10
2023-03-31T07:30:49.171Z,5.47
2023-03-31T07:33:15.963Z,5.60
2023-03-31T07:35:42.721Z,6.47
2023-03-31T07:38:11.052Z,6.27
2023-03-31T07:40:38.142Z,5.93
2023-03-31T07:43:05.956Z,6.13
2023-03-31T07:45:33.516Z,5.30
2023-03-31T07:48:00.440Z,6.07
2023-03-31T07:50:27.365Z,6.60
2023-03-31T07:52:54.334Z,6.57
2023-03-31T07:55:27.798Z,6.73
2023-03-31T07:57:54.795Z,6.47
2023-03-31T08:00:21.987Z,6.77
2023-03-31T08:02:48.798Z,7.23
2023-03-31T08:05:17.951Z,6.17
2023-03-31T08:07:47.198Z,8.30
2023-03-31T08:10:23.775Z,6.77
2023-03-31T08:12:50.505Z,7.33
2023-03-31T08:15:17.572Z,6.77
2023-03-31T08:17:44.528Z,6.90
2023-03-31T08:20:11.994Z,6.63
2023-03-31T08:22:40.339Z,6.87
2023-03-31T08:25:08.609Z,7.27
2023-03-31T08:27:36.526Z,7.27
2023-03-31T08:30:04.678Z,7.07
2023-03-31T08:32:32.610Z,6.97
2023-03-31T08:34:59.743Z,6.93
2023-03-31T08:37:28.292Z,7.67
2023-03-31T08:39:56.036Z,7.70
2023-03-31T08:42:57.855Z,7.40
2023-03-31T08:45:30.585Z,8.27
2023-03-31T08:48:28.274Z,7.87
2023-03-31T08:51:01.516Z,7.80
2023-03-31T08:53:41.076Z,8.07
2023-03-31T08:56:14.817Z,7.33
2023-03-31T08:58:46.287Z,7.80
2023-03-31T09:01:47.906Z,7.57
2023-03-31T09:04:33.347Z,8.03
2023-03-31T09:07:47.061Z,7.40
2023-03-31T09:10:38.548Z,7.47
2023-03-31T09:13:14.123Z,8.10
2023-03-31T09:15:50.638Z,8.70
2023-03-31T09:18:38.699Z,7.70
2023-03-31T09:21:13.216Z,7.20
2023-03-31T09:23:46.619Z,7.43
2023-03-31T09:26:24.057Z,7.87
2023-03-31T09:28:53.585Z,8.07
2023-03-31T09:31:22.434Z,8.03
2023-03-31T09:33:52.887Z,8.20
2023-03-31T09:36:24.486Z,7.80
2023-03-31T09:38:51.793Z,9.10
2023-03-31T09:41:21.888Z,7.83
2023-03-31T09:43:49.730Z,7.60
2023-03-31T09:46:21.888Z,8.50
2023-03-31T09:48:54.905Z,8.30
2023-03-31T09:51:29.859Z,9.00
2023-03-31T09:54:28.982Z,9.17
2023-03-31T09:56:55.872Z,9.43
2023-03-31T09:59:34.257Z,9.33
2023-03-31T10:02:04.518Z,9.70
2023-03-31T10:04:34.582Z,9.10
2023-03-31T10:07:04.838Z,9.47
2023-03-31T10:09:34.338Z,9.93
2023-03-31T10:12:07.278Z,10.27
2023-03-31T10:14:41.658Z,9.77
2023-03-31T10:17:19.705Z,10.00
2023-03-31T10:20:06.431Z,9.03
2023-03-31T10:22:33.195Z,10.20
2023-03-31T10:25:29.345Z,9.27
2023-03-31T10:27:57.369Z,9.20
2023-03-31T10:30:35.469Z,8.17
2023-03-31T10:33:21.958Z,7.77
2023-03-31T10:35:54.730Z,8.23
2023-03-31T10:38:33.111Z,7.07
2023-03-31T10:41:00.982Z,4.70
2023-03-31T10:43:33.572Z,4.30
2023-03-31T10:46:00.659Z,4.10
2023-03-31T10:48:31.109Z,4.57
2023-03-31T10:51:21.108Z,4.30
2023-03-31T10:53:52.913Z,4.60
2023-03-31T10:56:31.784Z,5.07
2023-03-31T10:59:29.859Z,5.60
2023-03-31T11:02:11.732Z,5.70
2023-03-31T11:05:13.328Z,7.23
2023-03-31T11:07:58.971Z,6.07
2023-03-31T11:10:28.511Z,6.67
2023-03-31T11:13:07.433Z,6.60
2023-03-31T11:15:59.317Z,7.70
2023-03-31T11:18:51.864Z,6.53
2023-03-31T11:21:34.030Z,6.77
2023-03-31T11:24:09.749Z,6.77
2023-03-31T11:26:45.707Z,7.20
2023-03-31T11:29:34.420Z,6.80
2023-03-31T11:32:22.794Z,6.27
2023-03-31T11:35:00.271Z,5.60
2023-03-31T11:38:01.555Z,6.03
2023-03-31T11:40:57.481Z,5.77
2023-03-31T11:43:36.509Z,5.53
2023-03-31T11:46:06.531Z,5.07
2023-03-31T11:48:48.142Z,5.10
2023-03-31T11:51:24.908Z,4.30
2023-03-31T11:53:54.613Z,3.60
2023-03-31T11:56:24.714Z,3.17
2023-03-31T11:58:58.911Z,2.47
2023-03-31T12:01:42.525Z,3.00
2023-03-31T12:04:18.202Z,2.63
2023-03-31T12:06:46.671Z,2.60
2023-03-31T12:09:24.128Z,2.67
2023-03-31T12:11:57.819Z,2.80
2023-03-31T12:14:24.415Z,2.50
2023-03-31T12:17:27.604Z,3.30
2023-03-31T12:20:10.643Z,3.07
2023-03-31T12:22:43.309Z,2.90
2023-03-31T12:25:15.628Z,2.87
2023-03-31T12:27:50.517Z,2.87
2023-03-31T12:30:42.229Z,3.07
2023-03-31T12:33:30.748Z,2.97
2023-03-31T12:36:03.589Z,2.93
2023-03-31T12:38:55.287Z,2.93
2023-03-31T12:41:38.298Z,3.20
2023-03-31T12:44:16.833Z,3.03
2023-03-31T12:47:13.929Z,2.67
2023-03-31T12:49:40.546Z,2.70
2023-03-31T12:52:43.265Z,2.70
2023-03-31T12:55:28.955Z,2.50
2023-03-31T12:58:25.016Z,2.50
2023-03-31T13:01:14.827Z,2.67
2023-03-31T13:03:49.740Z,2.20
2023-03-31T13:06:25.568Z,2.00
2023-03-31T13:08:59.302Z,2.27
2023-03-31T13:11:38.170Z,2.20
2023-03-31T13:14:19.846Z,2.47
2023-03-31T13:16:47.989Z,2.20
2023-03-31T13:19:34.602Z,2.20
2023-03-31T13:22:03.715Z,2.50
2023-03-31T13:24:32.258Z,2.40
2023-03-31T13:27:19.992Z,2.30
2023-03-31T13:29:46.715Z,2.47
2023-03-31T13:32:24.312Z,2.33
2023-03-31T13:35:07.710Z,2.23
2023-03-31T13:37:58.836Z,2.50
2023-03-31T13:40:48.390Z,2.50
2023-03-31T13:43:22.868Z,2.40
2023-03-31T13:45:52.732Z,2.77
2023-03-31T13:48:34.738Z,2.77
2023-03-31T13:51:13.692Z,2.60
2023-03-31T13:53:57.737Z,2.53
2023-03-31T13:56:33.583Z,2.40
2023-03-31T13:59:21.527Z,2.27
2023-03-31T14:02:21.268Z,2.17
2023-03-31T14:04:47.871Z,2.60
2023-03-31T14:07:20.364Z,2.50
2023-03-31T14:09:49.973Z,2.50
2023-03-31T14:12:27.207Z,2.20
2023-03-31T14:14:54.864Z,2.17
2023-03-31T14:17:26.225Z,2.37
2023-03-31T14:20:10.582Z,2.43
2023-03-31T14:22:46.318Z,2.87
2023-03-31T14:25:28.136Z,2.77
2023-03-31T14:28:10.158Z,2.87
2023-03-31T14:30:52.816Z,2.53
2023-03-31T14:33:27.692Z,2.50
2023-03-31T14:36:01.995Z,2.90
2023-03-31T14:38:30.098Z,2.73
2023-03-31T14:41:00.944Z,2.83
2023-03-31T14:43:33.524Z,2.80
2023-03-31T14:46:08.200Z,3.00
2023-03-31T14:48:45.127Z,2.80
2023-03-31T14:51:15.501Z,3.47
2023-03-31T14:53:45.495Z,3.00
2023-03-31T14:56:21.358Z,3.40
2023-03-31T14:58:51.747Z,3.80
2023-03-31T15:01:24.439Z,3.93
2023-03-31T15:03:53.473Z,3.63
2023-03-31T15:06:20.499Z,3.60
2023-03-31T15:08:47.514Z,3.90
2023-03-31T15:11:19.630Z,3.20
2023-03-31T15:14:03.717Z,3.30
2023-03-31T15:16:35.233Z,3.60
2023-03-31T15:19:11.091Z,3.87
2023-03-31T15:21:38.908Z,3.57
2023-03-31T15:24:06.039Z,3.07
2023-03-31T15:26:41.716Z,3.47
2023-03-31T15:29:23.072Z,3.70
2023-03-31T15:31:49.941Z,8.17
2023-03-31T15:34:27.221Z,4.67
2023-03-31T15:36:56.335Z,4.53
2023-03-31T15:39:29.939Z,7.53
2023-03-31T15:41:57.896Z,4.10
2023-03-31T15:44:54.027Z,2.90
2023-03-31T15:47:25.428Z,2.93
2023-03-31T15:50:14.260Z,2.40
2023-03-31T15:52:49.882Z,1.80
2023-03-31T15:55:31.723Z,2.03
2023-03-31T15:58:00.861Z,1.90
2023-03-31T16:00:33.540Z,2.10
2023-03-31T16:03:03.875Z,2.73
2023-03-31T16:05:54.869Z,3.47
2023-03-31T16:08:32.673Z,3.57
2023-03-31T16:11:08.146Z,4.20
2023-03-31T16:13:40.874Z,3.67
2023-03-31T16:16:15.279Z,3.87
2023-03-31T16:18:55.594Z,3.37
2023-03-31T16:21:27.325Z,2.63
2023-03-31T16:23:57.293Z,2.83
2023-03-31T16:26:28.363Z,2.80
2023-03-31T16:28:57.619Z,2.67
2023-03-31T16:31:34.472Z,2.90
2023-03-31T16:34:02.729Z,2.73
2023-03-31T16:36:29.708Z,2.40
2023-03-31T16:38:58.722Z,2.27
2023-03-31T16:41:28.874Z,2.57
2023-03-31T16:43:55.628Z,2.93
2023-03-31T16:46:24.027Z,2.73
2023-03-31T16:48:51.835Z,2.70
2023-03-31T16:51:19.325Z,3.10
2023-03-31T16:53:52.818Z,3.03
2023-03-31T16:56:19.602Z,3.37
2023-03-31T16:58:50.293Z,3.13
2023-03-31T17:01:17.217Z,3.90
2023-03-31T17:03:47.584Z,4.10
2023-03-31T17:06:14.601Z,3.70
2023-03-31T17:08:42.317Z,3.47
2023-03-31T17:11:12.381Z,3.80
2023-03-31T17:13:40.687Z,3.23
2023-03-31T17:16:16.326Z,3.70
2023-03-31T17:18:46.595Z,3.33
2023-03-31T17:21:15.690Z,3.17
2023-03-31T17:23:42.857Z,3.50
2023-03-31T17:26:13.602Z,3.60
2023-03-31T17:28:41.670Z,3.67
2023-03-31T17:31:13.730Z,3.50
2023-03-31T17:33:41.871Z,3.03
2023-03-31T17:36:09.928Z,3.23
2023-03-31T17:38:38.516Z,3.53
2023-03-31T17:41:12.754Z,3.87
2023-03-31T17:43:40.147Z,4.03
2023-03-31T17:46:13.579Z,3.97
2023-03-31T17:48:47.059Z,3.90
2023-03-31T17:51:43.031Z,4.70
2023-03-31T17:54:13.185Z,4.40
2023-03-31T17:56:39.968Z,3.90
2023-03-31T17:59:37.617Z,3.80
2023-03-31T18:02:13.771Z,3.80
2023-03-31T18:04:40.569Z,3.50
2023-03-31T18:07:07.532Z,4.20
2023-03-31T18:09:34.662Z,3.60
2023-03-31T18:12:01.455Z,3.77
2023-03-31T18:14:28.649Z,3.47
2023-03-31T18:16:55.929Z,3.83
2023-03-31T18:19:26.053Z,3.70
2023-03-31T18:21:53.010Z,3.60
2023-03-31T18:24:20.635Z,4.17
2023-03-31T18:26:47.370Z,4.80
2023-03-31T18:29:14.390Z,4.63
2023-03-31T18:31:41.829Z,4.27
2023-03-31T18:34:09.112Z,4.43
2023-03-31T18:36:36.001Z,4.13
2023-03-31T18:39:02.755Z,4.47
2023-03-31T18:41:29.934Z,4.13
2023-03-31T18:43:56.639Z,4.83
2023-03-31T18:46:23.492Z,4.70
2023-03-31T18:48:51.323Z,4.00
2023-03-31T18:51:18.544Z,4.57
2023-03-31T18:53:48.774Z,4.50
2023-03-31T18:56:16.127Z,4.77
2023-03-31T18:58:44.067Z,4.83
2023-03-31T19:01:10.867Z,4.30
2023-03-31T19:03:42.550Z,4.30
2023-03-31T19:06:20.978Z,4.70
2023-03-31T19:08:56.602Z,4.73
2023-03-31T19:11:32.121Z,4.47
2023-03-31T19:13:59.380Z,4.83
2023-03-31T19:16:29.808Z,4.67
2023-03-31T19:18:57.091Z,4.50
2023-03-31T19:21:24.800Z,4.73
2023-03-31T19:23:55.892Z,4.67
2023-03-31T19:26:22.858Z,4.53
2023-03-31T19:28:50.261Z,4.50
2023-03-31T19:31:18.194Z,4.80
2023-03-31T19:33:44.988Z,5.53
2023-03-31T19:36:12.064Z,5.00
2023-03-31T19:38:39.604Z,5.30
2023-03-31T19:41:12.574Z,4.93
2023-03-31T19:43:39.757Z,4.80
2023-03-31T19:46:06.735Z,4.67
2023-03-31T19:48:34.013Z,4.70
2023-03-31T19:51:06.264Z,4.60
2023-03-31T19:53:33.297Z,4.57
2023-03-31T19:56:12.186Z,5.07
2023-03-31T19:58:39.644Z,4.63
2023-03-31T20:01:16.088Z,5.27
2023-03-31T20:03:43.483Z,5.13
2023-03-31T20:06:14.923Z,5.53
2023-03-31T20:08:43.102Z,5.63
2023-03-31T20:11:13.485Z,5.80
2023-03-31T20:13:42.181Z,4.97
2023-03-31T20:16:14.837Z,5.93
2023-03-31T20:18:47.930Z,5.93
2023-03-31T20:21:18.151Z,5.73
2023-03-31T20:23:45.527Z,5.87
2023-03-31T20:26:19.286Z,5.60
2023-03-31T20:28:46.854Z,5.50
2023-03-31T20:31:17.859Z,5.97
2023-03-31T20:33:46.171Z,7.23
2023-03-31T20:36:17.168Z,6.80
2023-03-31T20:38:46.321Z,5.80
2023-03-31T20:41:14.038Z,6.23
2023-03-31T20:43:41.389Z,7.23
2023-03-31T20:46:09.642Z,6.80
2023-03-31T20:48:39.708Z,6.80
2023-03-31T20:51:08.537Z,6.53
2023-03-31T20:53:42.206Z,6.97
2023-03-31T20:56:15.678Z,6.90
2023-03-31T20:58:44.398Z,7.07
2023-03-31T21:01:12.485Z,7.77
2023-03-31T21:03:39.877Z,7.37
2023-03-31T21:06:11.655Z,7.50
2023-03-31T21:08:40.835Z,7.90
2023-03-31T21:11:07.873Z,6.77
2023-03-31T21:13:35.042Z,7.27
2023-03-31T21:16:04.354Z,7.23
2023-03-31T21:18:33.575Z,6.90
2023-03-31T21:21:02.592Z,7.70
2023-03-31T21:23:30.630Z,7.87
2023-03-31T21:26:01.722Z,8.80
2023-03-31T21:28:34.613Z,8.67
2023-03-31T21:31:04.458Z,8.20
2023-03-31T21:33:33.437Z,8.37
2023-03-31T21:36:00.475Z,8.37
2023-03-31T21:38:30.566Z,8.90
2023-03-31T21:40:57.581Z,9.60
2023-03-31T21:43:25.865Z,9.10
2023-03-31T21:45:57.239Z,9.00
2023-03-31T21:48:26.484Z,9.63
2023-03-31T21:50:54.898Z,10.40
2023-03-31T21:53:24.832Z,10.13
2023-03-31T21:55:55.119Z,11.03
2023-03-31T21:58:28.385Z,10.37
2023-03-31T22:01:00.346Z,10.43
2023-03-31T22:03:29.039Z,10.43
2023-03-31T22:05:57.194Z,10.70
2023-03-31T22:08:25.451Z,10.70
2023-03-31T22:10:53.101Z,11.37
2023-03-31T22:13:21.442Z,11.30
2023-03-31T22:15:48.632Z,11.93
2023-03-31T22:18:17.081Z,11.27
2023-03-31T22:20:45.140Z,11.67
2023-03-31T22:23:12.056Z,11.80
2023-03-31T22:25:38.957Z,12.57
2023-03-31T22:28:07.268Z,12.17
2023-03-31T22:30:35.155Z,12.27
2023-03-31T22:33:02.045Z,12.13
2023-03-31T22:35:29.276Z,12.57
2023-03-31T22:37:56.256Z,11.93
2023-03-31T22:40:24.068Z,12.40
2023-03-31T22:42:50.829Z,13.07
2023-03-31T22:45:17.613Z,13.70
2023-03-31T22:47:44.380Z,13.83
2023-03-31T22:50:12.011Z,13.77
2023-03-31T22:52:38.776Z,14.73
2023-03-31T22:55:06.243Z,14.27
2023-03-31T22:57:33.637Z,17.13
2023-03-31T23:00:00.803Z,18.43
2023-03-31T23:02:27.662Z,18.17
2023-03-31T23:04:54.434Z,18.73
2023-03-31T23:07:22.268Z,19.37
2023-03-31T23:09:49.161Z,20.00
2023-03-31T23:12:16.541Z,19.43
2023-03-31T23:14:43.401Z,19.00
2023-03-31T23:17:10.157Z,19.20
2023-03-31T23:19:38.842Z,19.50
2023-03-31T23:22:06.102Z,18.67
2023-03-31T23:24:33.231Z,18.27
2023-03-31T23:26:59.974Z,17.43
2023-03-31T23:29:27.367Z,17.67
2023-03-31T23:31:54.344Z,16.93
2023-03-31T23:34:21.314Z,17.13
2023-03-31T23:36:48.039Z,15.83
2023-03-31T23:39:14.872Z,15.37
2023-03-31T23:41:41.670Z,14.70
2023-03-31T23:44:08.377Z,12.83
2023-03-31T23:46:36.300Z,11.20
2023-03-31T23:49:04.850Z,12.17
2023-03-31T23:51:31.556Z,10.90
2023-03-31T23:53:58.392Z,10.07
2023-03-31T23:56:27.072Z,9.57
2023-03-31T23:58:54.070Z,10.07
